Time;durP1;ratioP1;P1;durP2;ratioP2;P2;SDS_P1;SDS_P2;PMS_P1;PMS_P2;Temp;Humidity;BMP_temperature;BMP_pressure;BME280_temperature;BME280_humidity;BME280_pressure;Samples;Min_cycle;Max_cycle;Signal;HPM_P1;HPM_P2
2022/04/10 00:01:41;;;;;;;3.63;1.55;;;;;;;;;;5055302;28;20037;-66
2022/04/10 00:04:07;;;;;;;4.47;1.40;;;;;;;;;;5035712;28;20026;-63
2022/04/10 00:06:33;;;;;;;2.72;1.33;;;;;;;;;;5033325;28;20099;-70
2022/04/10 00:08:59;;;;;;;5.30;1.70;;;;;;;;;;5034287;28;20078;-67
2022/04/10 00:11:25;;;;;;;2.70;1.40;;;;;;;;;;5035708;28;20392;-69
2022/04/10 00:13:51;;;;;;;3.55;1.40;;;;;;;;;;5034900;28;20048;-67
2022/04/10 00:16:17;;;;;;;6.63;1.80;;;;;;;;;;5035766;28;20069;-65
2022/04/10 00:18:43;;;;;;;3.15;1.50;;;;;;;;;;5035801;28;20193;-65
2022/04/10 00:21:09;;;;;;;4.35;1.40;;;;;;;;;;5036550;28;20044;-65
2022/04/10 00:23:34;;;;;;;4.75;1.30;;;;;;;;;;5047660;28;20055;-64
2022/04/10 00:26:00;;;;;;;8.93;1.80;;;;;;;;;;5052649;28;20307;-63
2022/04/10 00:28:26;;;;;;;2.83;1.30;;;;;;;;;;5054872;28;20100;-62
2022/04/10 00:30:52;;;;;;;6.32;1.40;;;;;;;;;;5054372;28;20044;-64
2022/04/10 00:33:18;;;;;;;6.32;1.25;;;;;;;;;;5054586;28;20074;-63
2022/04/10 00:35:44;;;;;;;3.75;1.20;;;;;;;;;;5054244;28;20056;-63
2022/04/10 00:38:10;;;;;;;4.75;1.40;;;;;;;;;;5054347;28;20026;-64
2022/04/10 00:40:36;;;;;;;2.85;1.17;;;;;;;;;;5054319;28;20044;-62
2022/04/10 00:43:02;;;;;;;3.42;1.45;;;;;;;;;;5054245;28;20032;-64
2022/04/10 00:45:28;;;;;;;4.18;1.83;;;;;;;;;;5069282;28;20029;-66
2022/04/10 00:47:54;;;;;;;3.58;1.20;;;;;;;;;;5053971;28;20090;-62
2022/04/10 00:50:20;;;;;;;2.78;1.02;;;;;;;;;;5054425;28;20475;-62
2022/04/10 00:52:48;;;;;;;4.03;1.40;;;;;;;;;;5039192;28;20460;-62
2022/04/10 00:55:14;;;;;;;4.78;1.50;;;;;;;;;;5032664;28;20498;-62
2022/04/10 00:57:41;;;;;;;5.15;1.65;;;;;;;;;;5032935;28;20540;-63
2022/04/10 01:00:10;;;;;;;2.97;1.30;;;;;;;;;;5033516;28;20028;-62
2022/04/10 01:02:40;;;;;;;2.97;1.42;;;;;;;;;;5034013;28;20029;-61
2022/04/10 01:05:07;;;;;;;7.70;1.80;;;;;;;;;;5033666;28;20395;-61
2022/04/10 01:07:33;;;;;;;3.60;1.48;;;;;;;;;;5051579;28;20539;-61
2022/04/10 01:09:59;;;;;;;4.47;1.55;;;;;;;;;;5052516;28;20529;-63
2022/04/10 01:12:25;;;;;;;4.22;2.10;;;;;;;;;;5052716;28;20024;-62
2022/04/10 01:14:56;;;;;;;9.27;2.15;;;;;;;;;;5068905;28;20037;-62
2022/04/10 01:17:31;;;;;;;8.10;2.20;;;;;;;;;;5052086;28;20037;-68
2022/04/10 01:19:57;;;;;;;4.00;1.80;;;;;;;;;;5052087;28;20071;-61
2022/04/10 01:22:44;;;;;;;2.60;1.50;;;;;;;;;;5052275;28;20116;-61
2022/04/10 01:25:12;;;;;;;5.30;1.75;;;;;;;;;;5052513;28;20041;-63
2022/04/10 01:27:41;;;;;;;9.18;2.42;;;;;;;;;;5052275;28;20036;-69
2022/04/10 01:30:10;;;;;;;6.38;2.00;;;;;;;;;;5052642;28;20466;-63
2022/04/10 01:32:36;;;;;;;3.95;1.55;;;;;;;;;;5052614;28;20683;-62
2022/04/10 01:35:04;;;;;;;2.05;1.33;;;;;;;;;;5053803;28;20040;-63
2022/04/10 01:37:33;;;;;;;5.25;1.70;;;;;;;;;;5052961;28;20056;-63
2022/04/10 01:39:59;;;;;;;8.82;2.20;;;;;;;;;;5052253;28;20447;-60
2022/04/10 01:42:26;;;;;;;8.52;2.03;;;;;;;;;;5051763;28;20103;-64
2022/04/10 01:44:51;;;;;;;10.63;2.63;;;;;;;;;;5051975;28;20123;-64
2022/04/10 01:47:19;;;;;;;8.05;2.90;;;;;;;;;;5052140;28;20029;-61
2022/04/10 01:49:45;;;;;;;5.00;1.98;;;;;;;;;;5052483;28;20434;-63
2022/04/10 01:52:11;;;;;;;5.85;1.67;;;;;;;;;;5052677;28;20021;-62
2022/04/10 01:54:37;;;;;;;4.45;1.55;;;;;;;;;;5051670;28;20051;-66
2022/04/10 01:57:05;;;;;;;4.07;1.65;;;;;;;;;;5052706;28;20033;-61
2022/04/10 01:59:32;;;;;;;4.47;1.52;;;;;;;;;;5051617;28;20036;-72
2022/04/10 02:01:58;;;;;;;5.10;1.77;;;;;;;;;;5051638;28;20028;-66
2022/04/10 02:04:25;;;;;;;5.03;1.77;;;;;;;;;;5051814;28;20036;-61
2022/04/10 02:06:51;;;;;;;3.97;1.80;;;;;;;;;;5051261;28;20396;-64
2022/04/10 02:09:18;;;;;;;3.47;1.60;;;;;;;;;;5051440;28;20041;-63
2022/04/10 02:11:45;;;;;;;6.97;1.67;;;;;;;;;;5050541;28;20083;-62
2022/04/10 02:14:13;;;;;;;5.35;1.45;;;;;;;;;;5051402;28;20033;-64
2022/04/10 02:16:38;;;;;;;5.15;1.60;;;;;;;;;;5052663;28;20060;-62
2022/04/10 02:19:04;;;;;;;3.30;1.60;;;;;;;;;;5051224;28;20037;-62
2022/04/10 02:21:31;;;;;;;3.72;1.40;;;;;;;;;;5051036;28;20032;-61
2022/04/10 02:23:56;;;;;;;3.15;1.65;;;;;;;;;;5067775;28;20623;-62
2022/04/10 02:26:22;;;;;;;4.57;1.50;;;;;;;;;;5052395;28;20104;-62
2022/04/10 02:28:48;;;;;;;2.88;1.50;;;;;;;;;;5067650;28;20041;-64
2022/04/10 02:31:15;;;;;;;4.63;1.77;;;;;;;;;;5030944;28;20021;-62
2022/04/10 02:33:41;;;;;;;3.95;1.67;;;;;;;;;;5032816;28;20420;-62
2022/04/10 02:36:06;;;;;;;6.88;2.08;;;;;;;;;;5031068;28;20060;-63
2022/04/10 02:38:35;;;;;;;5.90;1.95;;;;;;;;;;5031125;28;20026;-62
2022/04/10 02:41:01;;;;;;;4.45;1.85;;;;;;;;;;5031069;28;20384;-63
2022/04/10 02:43:27;;;;;;;5.05;1.70;;;;;;;;;;5031112;28;20451;-62
2022/04/10 02:45:58;;;;;;;8.23;2.05;;;;;;;;;;5030633;28;20470;-63
2022/04/10 02:48:25;;;;;;;5.63;1.58;;;;;;;;;;5030833;28;20383;-63
2022/04/10 02:50:52;;;;;;;8.10;2.22;;;;;;;;;;5031036;28;20084;-62
2022/04/10 02:53:18;;;;;;;6.10;2.42;;;;;;;;;;5030935;28;20072;-62
2022/04/10 02:55:44;;;;;;;3.92;1.30;;;;;;;;;;5030910;28;20083;-62
2022/04/10 02:58:10;;;;;;;3.67;1.65;;;;;;;;;;5030979;28;20561;-62
2022/04/10 03:00:36;;;;;;;4.93;1.85;;;;;;;;;;5030690;28;20025;-62
2022/04/10 03:03:02;;;;;;;7.65;2.10;;;;;;;;;;5030651;28;20106;-62
2022/04/10 03:05:27;;;;;;;7.18;2.13;;;;;;;;;;5032008;28;20468;-62
2022/04/10 03:07:53;;;;;;;5.35;1.50;;;;;;;;;;5030779;28;20132;-63
2022/04/10 03:10:20;;;;;;;3.40;1.40;;;;;;;;;;5030550;28;20034;-72
2022/04/10 03:12:46;;;;;;;3.97;1.50;;;;;;;;;;5031880;28;20084;-72
2022/04/10 03:15:11;;;;;;;5.43;1.45;;;;;;;;;;5030297;28;20037;-74
2022/04/10 03:17:38;;;;;;;5.82;1.58;;;;;;;;;;5047123;28;20037;-67
2022/04/10 03:20:05;;;;;;;5.95;1.90;;;;;;;;;;5030319;28;20025;-74
2022/04/10 03:22:31;;;;;;;6.28;2.17;;;;;;;;;;5030670;28;20033;-74
2022/04/10 03:24:57;;;;;;;5.63;2.00;;;;;;;;;;5035033;28;20483;-74
2022/04/10 03:27:23;;;;;;;6.30;1.70;;;;;;;;;;5034963;28;20114;-75
2022/04/10 03:29:49;;;;;;;4.75;1.60;;;;;;;;;;5034664;28;20021;-74
2022/04/10 03:32:15;;;;;;;6.15;1.98;;;;;;;;;;5034500;28;20037;-75
2022/04/10 03:34:41;;;;;;;3.40;1.65;;;;;;;;;;5034163;28;20025;-70
2022/04/10 03:37:07;;;;;;;6.68;1.80;;;;;;;;;;5035494;28;20083;-75
2022/04/10 03:39:35;;;;;;;5.95;1.75;;;;;;;;;;5034153;28;20468;-74
2022/04/10 03:42:01;;;;;;;4.25;2.05;;;;;;;;;;5034226;28;20034;-74
2022/04/10 03:44:27;;;;;;;6.03;1.95;;;;;;;;;;5034320;28;20029;-75
2022/04/10 03:46:53;;;;;;;3.50;1.90;;;;;;;;;;5035411;28;20116;-71
2022/04/10 03:49:19;;;;;;;5.47;1.70;;;;;;;;;;5050947;28;20021;-74
2022/04/10 03:51:45;;;;;;;4.20;1.60;;;;;;;;;;5033891;28;20116;-64
2022/04/10 03:54:11;;;;;;;2.78;1.33;;;;;;;;;;5033974;28;20136;-64
2022/04/10 03:56:37;;;;;;;3.42;1.60;;;;;;;;;;5034902;28;20404;-68
2022/04/10 03:59:04;;;;;;;3.78;1.42;;;;;;;;;;5033682;28;20453;-62
2022/04/10 04:01:31;;;;;;;2.70;1.30;;;;;;;;;;5033909;28;20091;-75
2022/04/10 04:03:56;;;;;;;3.40;1.33;;;;;;;;;;5035248;28;20029;-65
2022/04/10 04:06:23;;;;;;;6.35;1.70;;;;;;;;;;5050380;28;20038;-73
2022/04/10 04:08:49;;;;;;;4.53;1.40;;;;;;;;;;5050443;28;20079;-74
2022/04/10 04:11:15;;;;;;;3.45;1.40;;;;;;;;;;5034705;28;20037;-75
2022/04/10 04:13:41;;;;;;;2.85;1.30;;;;;;;;;;5033587;28;20022;-75
2022/04/10 04:16:08;;;;;;;3.10;1.48;;;;;;;;;;5034311;28;20048;-74
2022/04/10 04:18:35;;;;;;;7.13;1.50;;;;;;;;;;5049280;28;20025;-76
2022/04/10 04:21:02;;;;;;;4.90;1.58;;;;;;;;;;5052457;28;20033;-75
2022/04/10 04:23:31;;;;;;;5.35;1.70;;;;;;;;;;5061952;28;20397;-72
2022/04/10 04:25:58;;;;;;;6.63;1.92;;;;;;;;;;5037902;28;20041;-76
2022/04/10 04:28:25;;;;;;;4.68;1.50;;;;;;;;;;5034841;28;20545;-77
2022/04/10 04:30:51;;;;;;;5.68;1.70;;;;;;;;;;5033903;28;20033;-78
2022/04/10 04:33:17;;;;;;;6.15;2.35;;;;;;;;;;5050255;28;20028;-77
2022/04/10 04:35:43;;;;;;;4.00;1.35;;;;;;;;;;5032887;28;20404;-79
2022/04/10 04:38:09;;;;;;;4.15;1.35;;;;;;;;;;5040119;28;20025;-77
2022/04/10 04:40:37;;;;;;;9.75;2.20;;;;;;;;;;5057760;28;20426;-78
2022/04/10 04:43:03;;;;;;;9.88;2.30;;;;;;;;;;5042329;28;20076;-76
2022/04/10 04:45:32;;;;;;;8.20;2.15;;;;;;;;;;5054075;28;20063;-78
2022/04/10 04:48:11;;;;;;;8.63;2.40;;;;;;;;;;5050775;28;20037;-78
2022/04/10 04:50:38;;;;;;;9.63;2.17;;;;;;;;;;5051218;28;20372;-79
2022/04/10 04:53:05;;;;;;;7.78;2.20;;;;;;;;;;5054244;28;20075;-78
2022/04/10 04:55:32;;;;;;;4.15;1.63;;;;;;;;;;5054005;28;20083;-78
2022/04/10 04:57:58;;;;;;;5.78;1.80;;;;;;;;;;5050097;28;20045;-77
2022/04/10 05:00:26;;;;;;;7.78;2.20;;;;;;;;;;5033475;28;20033;-72
2022/04/10 05:02:57;;;;;;;8.38;2.85;;;;;;;;;;5033659;28;20392;-78
2022/04/10 05:05:24;;;;;;;4.85;2.13;;;;;;;;;;5033256;28;20041;-78
2022/04/10 05:07:50;;;;;;;10.55;2.25;;;;;;;;;;5033265;28;20369;-78
2022/04/10 05:10:17;;;;;;;9.63;2.25;;;;;;;;;;5033233;28;20029;-79
2022/04/10 05:12:44;;;;;;;4.40;1.92;;;;;;;;;;5017303;28;20167;-78
2022/04/10 05:15:14;;;;;;;5.88;1.40;;;;;;;;;;5033073;28;20037;-77
2022/04/10 05:17:43;;;;;;;3.97;1.60;;;;;;;;;;5034496;28;20036;-77
2022/04/10 05:20:11;;;;;;;6.78;1.88;;;;;;;;;;5033102;28;20079;-78
2022/04/10 05:22:43;;;;;;;5.88;2.00;;;;;;;;;;5049721;28;20483;-78
2022/04/10 05:25:09;;;;;;;4.25;1.73;;;;;;;;;;5033002;28;20098;-78
2022/04/10 05:27:39;;;;;;;8.95;1.75;;;;;;;;;;5034453;28;20028;-77
2022/04/10 05:30:06;;;;;;;5.55;1.90;;;;;;;;;;5053049;28;20033;-73
2022/04/10 05:32:32;;;;;;;9.48;2.90;;;;;;;;;;5069530;28;20148;-78
2022/04/10 05:34:58;;;;;;;6.10;2.67;;;;;;;;;;5069407;28;20033;-77
2022/04/10 05:37:26;;;;;;;4.93;1.63;;;;;;;;;;5052618;28;20025;-74
2022/04/10 05:39:56;;;;;;;3.38;1.60;;;;;;;;;;5052646;28;20036;-76
2022/04/10 05:42:22;;;;;;;3.05;1.55;;;;;;;;;;5056527;28;20038;-76
2022/04/10 05:44:48;;;;;;;6.72;1.92;;;;;;;;;;5046426;28;20464;-76
2022/04/10 05:47:14;;;;;;;4.93;1.90;;;;;;;;;;5052206;28;20094;-78
2022/04/10 05:49:40;;;;;;;6.22;1.90;;;;;;;;;;5052583;28;20460;-75
2022/04/10 05:52:07;;;;;;;4.93;2.03;;;;;;;;;;5052549;28;20044;-78
2022/04/10 05:54:35;;;;;;;10.73;2.00;;;;;;;;;;5052340;28;20040;-76
2022/04/10 05:57:02;;;;;;;6.97;2.03;;;;;;;;;;5052562;28;20127;-74
2022/04/10 05:59:29;;;;;;;4.55;1.67;;;;;;;;;;5048750;28;20068;-77
2022/04/10 06:01:57;;;;;;;4.40;1.65;;;;;;;;;;5032065;28;20466;-77
2022/04/10 06:04:24;;;;;;;4.78;1.73;;;;;;;;;;5032143;28;20398;-73
2022/04/10 06:06:50;;;;;;;5.95;1.88;;;;;;;;;;5041515;28;20068;-72
2022/04/10 06:09:24;;;;;;;4.40;2.08;;;;;;;;;;5032100;28;20037;-74
2022/04/10 06:11:50;;;;;;;5.75;1.90;;;;;;;;;;5048494;28;20179;-74
2022/04/10 06:14:17;;;;;;;6.82;1.70;;;;;;;;;;5048735;28;20037;-72
2022/04/10 06:16:44;;;;;;;5.18;1.75;;;;;;;;;;5048553;28;20098;-74
2022/04/10 06:19:10;;;;;;;5.47;1.80;;;;;;;;;;5048668;28;20116;-70
2022/04/10 06:21:36;;;;;;;7.80;2.42;;;;;;;;;;5048678;28;20088;-72
2022/04/10 06:24:03;;;;;;;4.47;2.00;;;;;;;;;;5031956;28;20030;-70
2022/04/10 06:26:36;;;;;;;;;;;;;;;;;;5048870;28;20114;-73
2022/04/10 06:29:03;;;;;;;4.50;1.70;;;;;;;;;;5048233;28;20000;-71
2022/04/10 06:31:40;;;;;;;6.70;2.10;;;;;;;;;;5048574;28;20112;-71
2022/04/10 06:34:06;;;;;;;4.57;1.90;;;;;;;;;;5031502;28;20119;-74
2022/04/10 06:36:33;;;;;;;4.55;1.80;;;;;;;;;;5048102;28;20180;-73
2022/04/10 06:38:59;;;;;;;4.05;1.70;;;;;;;;;;5031580;28;20116;-77
2022/04/10 06:41:30;;;;;;;5.25;2.15;;;;;;;;;;5048149;28;20498;-73
2022/04/10 06:44:00;;;;;;;5.88;2.20;;;;;;;;;;5048306;28;20029;-73
2022/04/10 06:46:51;;;;;;;5.78;1.83;;;;;;;;;;5032498;28;20518;-75
2022/04/10 06:49:23;;;;;;;7.78;1.70;;;;;;;;;;5048403;28;20071;-77
2022/04/10 06:51:50;;;;;;;4.75;1.80;;;;;;;;;;5048397;28;20032;-70
2022/04/10 06:54:22;;;;;;;4.70;1.50;;;;;;;;;;5048447;28;20042;-71
2022/04/10 06:56:48;;;;;;;5.43;1.70;;;;;;;;;;5048077;28;20037;-69
2022/04/10 06:59:14;;;;;;;3.85;1.50;;;;;;;;;;5047846;28;20032;-74
2022/04/10 07:01:41;;;;;;;5.13;1.50;;;;;;;;;;5048196;28;20040;-75
2022/04/10 07:04:07;;;;;;;4.07;1.60;;;;;;;;;;5032982;28;20026;-72
2022/04/10 07:06:35;;;;;;;7.00;1.98;;;;;;;;;;5048917;28;20040;-70
2022/04/10 07:09:01;;;;;;;3.28;1.60;;;;;;;;;;5048698;28;20021;-67
2022/04/10 07:11:32;;;;;;;4.35;1.70;;;;;;;;;;5031332;28;20128;-67
2022/04/10 07:13:59;;;;;;;3.65;1.60;;;;;;;;;;5031425;28;20042;-69
2022/04/10 07:16:25;;;;;;;7.47;2.20;;;;;;;;;;5032464;28;20022;-70
2022/04/10 07:18:51;;;;;;;6.07;1.60;;;;;;;;;;5039406;28;20082;-68
2022/04/10 07:23:41;;;;;;;5.28;1.73;;;;;;;;;;5046444;28;20037;-67
2022/04/10 07:24:08;;;;;;;7.38;2.10;;;;;;;;;;5048390;28;20029;-68
2022/04/10 07:26:40;;;;;;;5.93;1.80;;;;;;;;;;5049825;28;20041;-69
2022/04/10 07:29:12;;;;;;;6.57;1.60;;;;;;;;;;5050599;28;20260;-67
2022/04/10 07:31:40;;;;;;;5.80;1.83;;;;;;;;;;5050548;28;20476;-71
2022/04/10 07:34:06;;;;;;;4.50;1.83;;;;;;;;;;5050905;28;20032;-67
2022/04/10 07:37:04;;;;;;;5.20;1.70;;;;;;;;;;5025399;28;20076;-67
2022/04/10 07:39:41;;;;;;;5.13;2.30;;;;;;;;;;5050470;28;20041;-70
2022/04/10 07:42:16;;;;;;;4.72;1.63;;;;;;;;;;5050432;28;20091;-67
2022/04/10 07:44:42;;;;;;;8.50;1.85;;;;;;;;;;5050565;28;20048;-66
2022/04/10 07:47:27;;;;;;;16.50;3.50;;;;;;;;;;5050177;28;20029;-71
2022/04/10 07:49:54;;;;;;;5.95;1.75;;;;;;;;;;5050543;28;20453;-67
2022/04/10 07:52:21;;;;;;;4.30;2.15;;;;;;;;;;5065409;28;20127;-66
2022/04/10 07:55:05;;;;;;;11.60;1.98;;;;;;;;;;5065493;28;20229;-66
2022/04/10 07:57:35;;;;;;;4.55;1.80;;;;;;;;;;5051176;28;20127;-74
2022/04/10 08:00:01;;;;;;;7.57;2.58;;;;;;;;;;5056951;28;20515;-75
2022/04/10 08:02:48;;;;;;;3.45;1.50;;;;;;;;;;5069899;28;20104;-74
2022/04/10 08:05:23;;;;;;;4.75;1.60;;;;;;;;;;5069874;28;20033;-77
2022/04/10 08:08:07;;;;;;;3.83;1.80;;;;;;;;;;5071709;28;20094;-72
2022/04/10 08:10:33;;;;;;;3.03;1.70;;;;;;;;;;5074761;28;20028;-71
2022/04/10 08:12:59;;;;;;;3.58;1.77;;;;;;;;;;5075107;28;20489;-69
2022/04/10 08:15:26;;;;;;;5.40;1.92;;;;;;;;;;5075016;28;20446;-75
2022/04/10 08:17:52;;;;;;;8.55;2.25;;;;;;;;;;5074957;28;20021;-73
2022/04/10 08:20:18;;;;;;;10.48;2.35;;;;;;;;;;5072543;28;20395;-74
2022/04/10 08:22:48;;;;;;;9.27;2.10;;;;;;;;;;5070641;28;20074;-70
2022/04/10 08:25:16;;;;;;;7.50;2.17;;;;;;;;;;5063747;28;20029;-70
2022/04/10 08:27:42;;;;;;;5.85;2.03;;;;;;;;;;5054776;28;20129;-76
2022/04/10 08:30:09;;;;;;;4.80;1.58;;;;;;;;;;5054845;28;20499;-73
2022/04/10 08:32:40;;;;;;;4.70;1.73;;;;;;;;;;5055089;28;20100;-71
2022/04/10 08:35:07;;;;;;;4.78;1.90;;;;;;;;;;5054563;28;20033;-72
2022/04/10 08:37:33;;;;;;;5.00;1.60;;;;;;;;;;5054680;28;20036;-71
2022/04/10 08:39:59;;;;;;;9.70;2.40;;;;;;;;;;5054761;28;20037;-70
2022/04/10 08:42:26;;;;;;;5.90;1.92;;;;;;;;;;5054715;28;20021;-70
2022/04/10 08:44:55;;;;;;;9.07;1.77;;;;;;;;;;5054660;28;20071;-73
2022/04/10 08:47:21;;;;;;;5.70;1.60;;;;;;;;;;5054906;28;20099;-72
2022/04/10 08:49:48;;;;;;;5.18;1.70;;;;;;;;;;5054682;28;20379;-70
2022/04/10 08:52:16;;;;;;;4.13;1.58;;;;;;;;;;5054190;28;20021;-67
2022/04/10 08:54:44;;;;;;;6.15;1.98;;;;;;;;;;5054069;28;20559;-71
2022/04/10 08:57:09;;;;;;;6.00;1.95;;;;;;;;;;5053165;28;20419;-66
2022/04/10 08:59:35;;;;;;;5.78;1.70;;;;;;;;;;5054259;28;20045;-66
2022/04/10 09:02:01;;;;;;;8.40;1.90;;;;;;;;;;5054211;28;20032;-66
2022/04/10 09:04:27;;;;;;;6.70;1.80;;;;;;;;;;5054069;28;20483;-66
2022/04/10 09:07:03;;;;;;;3.72;1.50;;;;;;;;;;5053907;28;20033;-72
2022/04/10 09:09:30;;;;;;;3.17;1.70;;;;;;;;;;5054144;28;20041;-67
2022/04/10 09:11:57;;;;;;;3.95;1.70;;;;;;;;;;5054176;28;20021;-66
2022/04/10 09:14:24;;;;;;;4.47;2.00;;;;;;;;;;5053950;28;20047;-66
2022/04/10 09:17:09;;;;;;;4.68;1.70;;;;;;;;;;5058032;28;20112;-66
2022/04/10 09:19:39;;;;;;;3.67;1.60;;;;;;;;;;5073975;28;20126;-66
2022/04/10 09:22:24;;;;;;;4.57;2.20;;;;;;;;;;5073525;28;20447;-65
2022/04/10 09:25:13;;;;;;;9.82;2.42;;;;;;;;;;5073814;28;20036;-76
2022/04/10 09:27:49;;;;;;;5.68;2.05;;;;;;;;;;5073946;28;20036;-67
2022/04/10 09:30:17;;;;;;;10.15;2.10;;;;;;;;;;5073865;28;20032;-67
2022/04/10 09:32:53;;;;;;;6.93;2.30;;;;;;;;;;5073332;28;20071;-67
2022/04/10 09:35:21;;;;;;;6.10;2.88;;;;;;;;;;5072248;28;20075;-67
2022/04/10 09:37:56;;;;;;;7.80;2.50;;;;;;;;;;5066662;28;20028;-68
2022/04/10 09:40:35;;;;;;;6.70;2.28;;;;;;;;;;5053602;28;20029;-66
2022/04/10 09:43:04;;;;;;;6.93;2.00;;;;;;;;;;5055956;28;20537;-65
2022/04/10 09:52:00;;;;;;;8.18;1.77;;;;;;;;;;4973354;28;20089;-68
2022/04/10 09:54:42;;;;;;;4.70;1.70;;;;;;;;;;4970473;28;20027;-67
2022/04/10 09:57:12;;;;;;;5.72;2.00;;;;;;;;;;4966165;28;20031;-71
2022/04/10 09:59:43;;;;;;;4.30;2.08;;;;;;;;;;4955026;28;20389;-70
2022/04/10 10:02:10;;;;;;;3.85;1.52;;;;;;;;;;4954955;28;20552;-69
2022/04/10 10:04:38;;;;;;;7.50;1.77;;;;;;;;;;4955141;28;20158;-76
2022/04/10 10:07:07;;;;;;;5.57;2.08;;;;;;;;;;4955099;28;20347;-65
2022/04/10 10:09:33;;;;;;;4.40;1.77;;;;;;;;;;4954181;28;20114;-67
2022/04/10 10:12:01;;;;;;;10.23;2.08;;;;;;;;;;4950026;29;20170;-67
2022/04/10 10:14:29;;;;;;;7.55;2.05;;;;;;;;;;4953198;28;20036;-71
2022/04/10 10:16:57;;;;;;;5.43;1.95;;;;;;;;;;4952915;28;20505;-75
2022/04/10 10:19:24;;;;;;;3.50;1.52;;;;;;;;;;4954357;28;20051;-65
2022/04/10 10:21:50;;;;;;;8.35;2.65;;;;;;;;;;4968857;28;20043;-77
2022/04/10 10:24:18;;;;;;;4.10;2.03;;;;;;;;;;4952629;28;20027;-72
2022/04/10 10:27:13;;;;;;;7.40;2.13;;;;;;;;;;4954236;28;20043;-73
2022/04/10 10:29:51;;;;;;;8.43;2.08;;;;;;;;;;4954577;29;20038;-69
2022/04/10 10:32:42;;;;;;;3.95;2.15;;;;;;;;;;4953924;28;20143;-73
2022/04/10 10:35:26;;;;;;;6.30;2.28;;;;;;;;;;4954286;28;20066;-74
2022/04/10 10:37:53;;;;;;;4.80;1.90;;;;;;;;;;4954328;28;20035;-69
2022/04/10 10:40:21;;;;;;;8.18;2.17;;;;;;;;;;4954399;28;20544;-67
2022/04/10 10:42:49;;;;;;;6.63;2.85;;;;;;;;;;4954383;28;20067;-67
2022/04/10 10:45:36;;;;;;;11.25;3.15;;;;;;;;;;4954584;29;20363;-74
2022/04/10 10:48:25;;;;;;;10.57;2.40;;;;;;;;;;4954485;29;20042;-76
2022/04/10 10:50:52;;;;;;;9.55;2.80;;;;;;;;;;4954562;28;20046;-69
2022/04/10 10:53:55;;;;;;;6.15;2.60;;;;;;;;;;4954717;28;20040;-71
2022/04/10 10:56:32;;;;;;;9.25;3.53;;;;;;;;;;4954342;28;20275;-69
2022/04/10 10:59:21;;;;;;;6.65;3.03;;;;;;;;;;4954189;28;20027;-71
2022/04/10 11:02:13;;;;;;;5.80;2.95;;;;;;;;;;4954511;28;20109;-78
2022/04/10 11:04:46;;;;;;;13.82;3.25;;;;;;;;;;4954588;28;20036;-71
2022/04/10 11:07:18;;;;;;;8.40;2.70;;;;;;;;;;4954316;28;20034;-72
2022/04/10 11:10:09;;;;;;;6.57;3.05;;;;;;;;;;4954387;28;20126;-77
2022/04/10 11:12:54;;;;;;;7.90;2.92;;;;;;;;;;4954621;28;20441;-72
2022/04/10 11:15:28;;;;;;;5.70;2.60;;;;;;;;;;4954419;28;20039;-79
2022/04/10 11:17:54;;;;;;;5.13;2.42;;;;;;;;;;4954176;28;20394;-77
2022/04/10 11:20:22;;;;;;;4.68;2.20;;;;;;;;;;4954351;28;20027;-75
2022/04/10 11:22:48;;;;;;;10.07;1.90;;;;;;;;;;4954350;29;20035;-74
2022/04/10 11:25:16;;;;;;;6.82;2.28;;;;;;;;;;4954540;28;20042;-75
2022/04/10 11:27:47;;;;;;;4.07;1.90;;;;;;;;;;4954177;29;20027;-77
2022/04/10 11:30:19;;;;;;;4.63;1.80;;;;;;;;;;4954025;29;20036;-75
2022/04/10 11:33:07;;;;;;;5.45;2.17;;;;;;;;;;4954348;28;20035;-77
2022/04/10 11:35:39;;;;;;;3.17;1.77;;;;;;;;;;4954181;28;20043;-77
2022/04/10 11:38:13;;;;;;;11.20;2.47;;;;;;;;;;4954088;28;20441;-76
2022/04/10 11:40:41;;;;;;;5.10;2.10;;;;;;;;;;4954198;29;20038;-77
2022/04/10 11:43:08;;;;;;;9.88;1.80;;;;;;;;;;4954322;28;20031;-76
2022/04/10 11:45:35;;;;;;;5.70;2.08;;;;;;;;;;4957757;29;20393;-75
2022/04/10 11:48:04;;;;;;;7.70;3.08;;;;;;;;;;4957389;29;20032;-75
2022/04/10 11:50:30;;;;;;;4.72;1.77;;;;;;;;;;4957588;28;20447;-71
2022/04/10 11:52:58;;;;;;;4.72;1.90;;;;;;;;;;4958233;29;20477;-77
2022/04/10 11:55:38;;;;;;;3.25;1.83;;;;;;;;;;4957760;28;20043;-74
2022/04/10 11:58:26;;;;;;;7.35;2.03;;;;;;;;;;4972373;28;20086;-73
2022/04/10 12:00:57;;;;;;;4.75;1.60;;;;;;;;;;4957431;29;20035;-77
2022/04/10 12:03:29;;;;;;;12.73;1.60;;;;;;;;;;4957696;29;20111;-77
2022/04/10 12:05:55;;;;;;;3.92;1.55;;;;;;;;;;4957477;28;20057;-79
2022/04/10 12:08:23;;;;;;;5.15;1.20;;;;;;;;;;4958150;28;20019;-76
2022/04/10 12:10:53;;;;;;;5.32;1.50;;;;;;;;;;4957799;28;20034;-77
2022/04/10 12:13:20;;;;;;;9.55;1.58;;;;;;;;;;4957580;28;20156;-71
2022/04/10 12:15:45;;;;;;;6.90;1.42;;;;;;;;;;4957267;28;20114;-78
2022/04/10 12:18:13;;;;;;;4.75;1.58;;;;;;;;;;4957762;28;20114;-77
2022/04/10 12:20:44;;;;;;;3.58;1.40;;;;;;;;;;4957816;28;20019;-68
2022/04/10 12:23:19;;;;;;;3.72;1.80;;;;;;;;;;4957498;29;20059;-71
2022/04/10 12:25:47;;;;;;;5.40;1.58;;;;;;;;;;4957424;28;20039;-71
2022/04/10 12:28:13;;;;;;;8.50;1.70;;;;;;;;;;4957439;28;20031;-76
2022/04/10 12:30:41;;;;;;;7.63;1.92;;;;;;;;;;4957597;28;20512;-78
2022/04/10 12:33:07;;;;;;;5.95;1.70;;;;;;;;;;4957539;28;20027;-79
2022/04/10 12:35:38;;;;;;;7.80;2.30;;;;;;;;;;4957627;28;20047;-77
2022/04/10 12:38:04;;;;;;;10.60;2.03;;;;;;;;;;4956983;28;20490;-78
2022/04/10 12:40:30;;;;;;;10.55;1.90;;;;;;;;;;4957442;28;20031;-71
2022/04/10 12:43:00;;;;;;;9.68;2.03;;;;;;;;;;4957397;28;20046;-78
2022/04/10 12:45:31;;;;;;;6.15;1.90;;;;;;;;;;4957271;28;20039;-78
2022/04/10 12:47:57;;;;;;;6.07;1.77;;;;;;;;;;4957085;28;20039;-77
2022/04/10 12:50:25;;;;;;;9.23;2.00;;;;;;;;;;4957157;28;20043;-76
2022/04/10 12:52:55;;;;;;;7.20;1.90;;;;;;;;;;4957202;28;20482;-78
2022/04/10 12:55:29;;;;;;;8.98;2.28;;;;;;;;;;4956370;28;20046;-75
2022/04/10 12:58:01;;;;;;;13.63;2.13;;;;;;;;;;4956772;28;20031;-76
2022/04/10 13:00:35;;;;;;;10.70;2.13;;;;;;;;;;4956730;28;20495;-76
2022/04/10 13:03:25;;;;;;;10.52;2.10;;;;;;;;;;4956687;28;20046;-78
2022/04/10 13:05:59;;;;;;;7.97;2.20;;;;;;;;;;4956754;28;20069;-78
2022/04/10 13:08:27;;;;;;;5.25;1.50;;;;;;;;;;4956829;29;20114;-76
2022/04/10 13:10:56;;;;;;;10.75;1.83;;;;;;;;;;4956683;28;20046;-79
2022/04/10 13:13:22;;;;;;;9.60;1.80;;;;;;;;;;4956696;28;20398;-79
2022/04/10 13:15:48;;;;;;;9.45;2.00;;;;;;;;;;4956587;29;20031;-78
2022/04/10 13:18:15;;;;;;;7.85;1.42;;;;;;;;;;4956442;29;20040;-78
2022/04/10 13:20:41;;;;;;;8.52;1.95;;;;;;;;;;4956495;28;20094;-78
2022/04/10 13:23:07;;;;;;;6.40;1.55;;;;;;;;;;4956195;29;20113;-78
2022/04/10 13:25:35;;;;;;;6.85;1.50;;;;;;;;;;4956299;29;20038;-79
2022/04/10 13:28:05;;;;;;;5.30;1.50;;;;;;;;;;4956352;28;20129;-75
2022/04/10 13:30:32;;;;;;;4.80;1.45;;;;;;;;;;4956113;29;20118;-78
2022/04/10 13:33:02;;;;;;;8.93;1.73;;;;;;;;;;4956108;28;20024;-79
2022/04/10 13:35:28;;;;;;;6.75;1.85;;;;;;;;;;4956378;28;20038;-77
2022/04/10 13:37:54;;;;;;;6.35;1.85;;;;;;;;;;4956158;29;20023;-77
2022/04/10 13:40:20;;;;;;;6.85;1.80;;;;;;;;;;4956281;28;20031;-78
2022/04/10 13:42:47;;;;;;;11.10;1.90;;;;;;;;;;4956010;29;20026;-78
2022/04/10 13:45:13;;;;;;;9.18;1.70;;;;;;;;;;4956331;28;20423;-79
2022/04/10 13:47:40;;;;;;;10.85;1.80;;;;;;;;;;4955977;29;20065;-77
2022/04/10 13:50:07;;;;;;;17.08;2.45;;;;;;;;;;4956016;29;20051;-77
2022/04/10 13:52:34;;;;;;;14.88;1.67;;;;;;;;;;4956392;28;20036;-68
2022/04/10 13:55:01;;;;;;;13.65;2.00;;;;;;;;;;4956197;28;20039;-76
2022/04/10 13:57:27;;;;;;;16.17;1.80;;;;;;;;;;4955890;28;20023;-74
2022/04/10 13:59:53;;;;;;;7.15;1.70;;;;;;;;;;4955966;28;20114;-71
2022/04/10 14:02:19;;;;;;;9.48;1.88;;;;;;;;;;4955874;28;20027;-70
2022/04/10 14:04:45;;;;;;;11.82;1.85;;;;;;;;;;4955763;28;20040;-76
2022/04/10 14:07:11;;;;;;;8.10;1.80;;;;;;;;;;4955878;28;20081;-72
2022/04/10 14:09:38;;;;;;;7.32;2.08;;;;;;;;;;4955419;28;20039;-67
2022/04/10 14:12:05;;;;;;;9.82;2.00;;;;;;;;;;4955696;28;20026;-67
2022/04/10 14:14:34;;;;;;;12.75;1.70;;;;;;;;;;4970494;28;20039;-67
2022/04/10 14:17:00;;;;;;;8.18;1.88;;;;;;;;;;4955588;29;20053;-66
2022/04/10 14:19:27;;;;;;;7.35;1.50;;;;;;;;;;4955353;28;20036;-67
2022/04/10 14:21:53;;;;;;;13.55;2.08;;;;;;;;;;4955334;28;20435;-71
2022/04/10 14:24:19;;;;;;;7.90;1.77;;;;;;;;;;4955307;28;20039;-70
2022/04/10 14:26:44;;;;;;;9.27;1.60;;;;;;;;;;4955133;28;20066;-71
2022/04/10 14:29:10;;;;;;;10.27;1.58;;;;;;;;;;4955254;29;20406;-74
2022/04/10 14:31:36;;;;;;;4.03;1.10;;;;;;;;;;4955284;29;20470;-70
2022/04/10 14:34:06;;;;;;;5.93;1.60;;;;;;;;;;4955561;28;20035;-73
2022/04/10 14:36:32;;;;;;;6.35;1.52;;;;;;;;;;4954440;29;20027;-71
2022/04/10 14:38:58;;;;;;;6.43;1.30;;;;;;;;;;4955287;29;20032;-73
2022/04/10 14:41:24;;;;;;;4.15;1.20;;;;;;;;;;4969826;28;20030;-69
2022/04/10 14:43:50;;;;;;;5.75;1.13;;;;;;;;;;4954779;29;20589;-73
2022/04/10 14:46:18;;;;;;;8.68;1.55;;;;;;;;;;4954448;28;20106;-72
2022/04/10 14:48:45;;;;;;;4.93;1.25;;;;;;;;;;4954365;28;20177;-67
2022/04/10 14:51:10;;;;;;;5.20;1.35;;;;;;;;;;4954550;29;20052;-72
2022/04/10 14:53:36;;;;;;;4.13;1.02;;;;;;;;;;4955083;28;20262;-67
2022/04/10 14:56:03;;;;;;;4.10;1.33;;;;;;;;;;4955450;29;20098;-71
2022/04/10 14:58:28;;;;;;;6.97;1.45;;;;;;;;;;4954931;29;20032;-71
2022/04/10 15:00:54;;;;;;;7.53;1.13;;;;;;;;;;4955027;28;20030;-67